ENAN

Andøya Airport

Andenes, Norway
METAR ENAN 191950Z 30012KT 4900 RA SCT002 OVC024 08/08 Q0992
Observed Flight Rules
Jun-19 @ 19:50 UTC (25 minutes ago) Marginal Visual Flight Rules
Wind Visibility Clouds Conditions
300° at 12 knots 4,892 meters
  • Scattered at 200' AGL
  • Overcast at 2,400' AGL
  • Rain
Temperatures Readings
Current 8°C / 46°F
Dewpoint 8°C / 46°F
Humidity 100%
Altimeter 29.29" Hg
Pressure 992 hPa
Elevation 14
METAR ENAN 191950Z 30012KT 4900 RA SCT002 OVC024 08/08 Q0992
Observed Flight Rules
Jun-19 @ 19:50 UTC
(25 minutes ago)
MVFR
Wind Visibility
300° at 12 knots 4,892 meters
Clouds
  • Scattered at 200' AGL
  • Overcast at 2,400' AGL
Conditions
  • Rain
Temperature Dewpoint
8°C / 46°F 8°C / 46°F
Humidity Altimeter Pressure
100% 29.29" Hg 992 hPa